Time;durP1;ratioP1;P1;durP2;ratioP2;P2;SDS_P1;SDS_P2;PMS_P1;PMS_P2;Temp;Humidity;BMP_temperature;BMP_pressure;BME280_temperature;BME280_humidity;BME280_pressure;Samples;Min_cycle;Max_cycle;Signal;HPM_P1;HPM_P2
2022/06/15 00:02:23;;;;;;;7.05;3.92;;;;;;;;;;5065481;28;20131;-59
2022/06/15 00:04:49;;;;;;;9.07;3.70;;;;;;;;;;5045702;28;20041;-59
2022/06/15 00:07:16;;;;;;;6.78;3.78;;;;;;;;;;5065776;28;20032;-59
2022/06/15 00:09:42;;;;;;;10.20;3.90;;;;;;;;;;5065154;28;20138;-58
2022/06/15 00:12:08;;;;;;;12.13;4.90;;;;;;;;;;5065099;28;20106;-59
2022/06/15 00:14:35;;;;;;;10.63;4.80;;;;;;;;;;5064910;28;20060;-58
2022/06/15 00:17:01;;;;;;;11.80;4.80;;;;;;;;;;5065605;28;20043;-58
2022/06/15 00:19:27;;;;;;;11.38;4.78;;;;;;;;;;5064794;28;20485;-59
2022/06/15 00:21:53;;;;;;;8.18;4.03;;;;;;;;;;5063057;28;20497;-58
2022/06/15 00:24:19;;;;;;;12.20;4.65;;;;;;;;;;5064820;28;20036;-59
2022/06/15 00:26:45;;;;;;;7.60;3.90;;;;;;;;;;5046979;28;20762;-59
2022/06/15 00:29:12;;;;;;;7.43;4.57;;;;;;;;;;5064365;28;20759;-59
2022/06/15 00:31:38;;;;;;;8.60;4.68;;;;;;;;;;5064512;28;20041;-58
2022/06/15 00:34:05;;;;;;;9.77;4.35;;;;;;;;;;5064590;28;20119;-58
2022/06/15 00:36:31;;;;;;;8.07;4.40;;;;;;;;;;5064051;28;20064;-59
2022/06/15 00:38:58;;;;;;;7.18;4.38;;;;;;;;;;5064481;28;20090;-58
2022/06/15 00:41:27;;;;;;;9.95;3.78;;;;;;;;;;5064377;28;20517;-59
2022/06/15 00:43:54;;;;;;;6.75;3.40;;;;;;;;;;5064836;28;20052;-59
2022/06/15 00:46:21;;;;;;;9.15;4.20;;;;;;;;;;5064189;28;20051;-59
2022/06/15 00:48:48;;;;;;;7.68;4.03;;;;;;;;;;5064134;28;20036;-60
2022/06/15 00:51:15;;;;;;;12.90;4.00;;;;;;;;;;5063893;28;20080;-59
2022/06/15 00:53:41;;;;;;;10.07;4.32;;;;;;;;;;5064642;28;20070;-58
2022/06/15 00:56:08;;;;;;;8.73;4.25;;;;;;;;;;5064133;28;20044;-59
2022/06/15 00:58:37;;;;;;;9.73;3.83;;;;;;;;;;5064256;28;20376;-59
2022/06/15 01:01:04;;;;;;;5.68;3.80;;;;;;;;;;5063863;28;20158;-58
2022/06/15 01:03:30;;;;;;;7.72;3.83;;;;;;;;;;5064602;28;20089;-59
2022/06/15 01:06:06;;;;;;;11.73;4.25;;;;;;;;;;5064211;28;20126;-59
2022/06/15 01:08:33;;;;;;;10.82;4.00;;;;;;;;;;5063446;28;20044;-59
2022/06/15 01:11:06;;;;;;;8.60;4.05;;;;;;;;;;5063928;28;20040;-59
2022/06/15 01:13:43;;;;;;;9.30;4.15;;;;;;;;;;5063410;28;20056;-58
2022/06/15 01:16:09;;;;;;;8.35;3.95;;;;;;;;;;5063411;28;20044;-61
2022/06/15 01:18:42;;;;;;;6.50;3.90;;;;;;;;;;5063911;28;20036;-60
2022/06/15 01:21:16;;;;;;;7.68;3.63;;;;;;;;;;5063972;28;20041;-61
2022/06/15 01:24:04;;;;;;;6.90;3.42;;;;;;;;;;5044717;28;20052;-60
2022/06/15 01:26:31;;;;;;;9.10;3.75;;;;;;;;;;5064117;28;20040;-59
2022/06/15 01:28:59;;;;;;;7.35;3.90;;;;;;;;;;5063862;28;20068;-60
2022/06/15 01:31:42;;;;;;;10.30;3.72;;;;;;;;;;5064073;28;20040;-60
2022/06/15 01:34:19;;;;;;;8.23;4.13;;;;;;;;;;5063789;28;20041;-60
2022/06/15 01:36:49;;;;;;;9.55;3.85;;;;;;;;;;5063835;28;20052;-59
2022/06/15 01:39:15;;;;;;;7.97;3.75;;;;;;;;;;5064201;28;20619;-60
2022/06/15 01:41:48;;;;;;;7.53;3.88;;;;;;;;;;5064243;28;20090;-60
2022/06/15 01:44:17;;;;;;;5.85;3.70;;;;;;;;;;5064176;28;20036;-59
2022/06/15 01:46:44;;;;;;;7.10;3.88;;;;;;;;;;5064498;28;21162;-60
2022/06/15 01:49:15;;;;;;;7.65;4.07;;;;;;;;;;5063607;28;20509;-59
2022/06/15 01:51:43;;;;;;;5.70;3.40;;;;;;;;;;5062889;28;20464;-60
2022/06/15 01:54:11;;;;;;;9.77;3.30;;;;;;;;;;5045730;28;20052;-59
2022/06/15 01:56:39;;;;;;;7.45;3.75;;;;;;;;;;5044411;28;20392;-59
2022/06/15 01:59:11;;;;;;;6.10;3.20;;;;;;;;;;5063098;28;20364;-59
2022/06/15 02:01:46;;;;;;;9.50;3.20;;;;;;;;;;5063783;28;21351;-60
2022/06/15 02:04:18;;;;;;;11.93;3.50;;;;;;;;;;5064004;28;20115;-60
2022/06/15 02:07:04;;;;;;;8.07;4.53;;;;;;;;;;5063556;28;20086;-60
2022/06/15 02:09:38;;;;;;;8.68;3.72;;;;;;;;;;5063099;28;20115;-59
2022/06/15 02:12:06;;;;;;;8.30;4.22;;;;;;;;;;5062164;28;20067;-60
2022/06/15 02:14:40;;;;;;;8.73;3.88;;;;;;;;;;5063395;28;20098;-60
2022/06/15 02:17:08;;;;;;;8.00;4.05;;;;;;;;;;5063450;28;20037;-59
2022/06/15 02:19:34;;;;;;;;;;;;;;;;;;5063537;28;20106;-59
2022/06/15 02:22:03;;;;;;;8.75;3.72;;;;;;;;;;5062430;28;19995;-59
2022/06/15 02:24:29;;;;;;;7.18;3.85;;;;;;;;;;5063378;28;20091;-59
2022/06/15 02:26:55;;;;;;;7.15;3.72;;;;;;;;;;5063866;28;20043;-59
2022/06/15 02:29:23;;;;;;;6.65;3.65;;;;;;;;;;5066171;28;20041;-60
2022/06/15 02:31:49;;;;;;;6.38;3.35;;;;;;;;;;5067609;28;20037;-60
2022/06/15 02:34:15;;;;;;;8.73;3.40;;;;;;;;;;5067297;28;20044;-59
2022/06/15 02:36:42;;;;;;;7.97;3.70;;;;;;;;;;5066488;28;20047;-61
2022/06/15 02:39:08;;;;;;;7.68;3.60;;;;;;;;;;5047485;28;20055;-60
2022/06/15 02:41:35;;;;;;;10.02;3.70;;;;;;;;;;5067313;28;20040;-59
2022/06/15 02:44:03;;;;;;;8.38;4.03;;;;;;;;;;5067127;28;20135;-59
2022/06/15 02:46:31;;;;;;;5.60;3.42;;;;;;;;;;5067197;28;20036;-60
2022/06/15 02:48:58;;;;;;;7.50;3.95;;;;;;;;;;5064550;28;20048;-59
2022/06/15 02:51:27;;;;;;;7.10;3.55;;;;;;;;;;5066208;28;20082;-59
2022/06/15 02:53:56;;;;;;;8.77;3.95;;;;;;;;;;5067161;28;20101;-60
2022/06/15 02:56:23;;;;;;;7.20;3.88;;;;;;;;;;5066775;28;20045;-60
2022/06/15 02:58:50;;;;;;;7.03;3.72;;;;;;;;;;5066199;28;20040;-59
2022/06/15 03:01:16;;;;;;;8.32;5.22;;;;;;;;;;5067325;28;20045;-59
2022/06/15 03:03:42;;;;;;;9.30;3.97;;;;;;;;;;5067229;28;20043;-59
2022/06/15 03:06:10;;;;;;;8.77;4.18;;;;;;;;;;5065714;28;20087;-59
2022/06/15 03:08:36;;;;;;;8.90;4.07;;;;;;;;;;5066797;28;20036;-61
2022/06/15 03:11:02;;;;;;;7.68;3.50;;;;;;;;;;5064290;28;20045;-59
2022/06/15 03:13:28;;;;;;;11.38;4.05;;;;;;;;;;5066321;28;20048;-59
2022/06/15 03:15:59;;;;;;;7.68;3.80;;;;;;;;;;5066252;28;20186;-59
2022/06/15 03:18:27;;;;;;;6.13;3.55;;;;;;;;;;5066328;28;20043;-60
2022/06/15 03:20:57;;;;;;;19.02;4.30;;;;;;;;;;5065957;28;20048;-60
2022/06/15 03:23:24;;;;;;;10.70;3.80;;;;;;;;;;5063599;28;20045;-59
2022/06/15 03:25:54;;;;;;;11.98;4.35;;;;;;;;;;5065315;28;20123;-60
2022/06/15 03:28:20;;;;;;;6.13;3.50;;;;;;;;;;5065857;28;20048;-60
2022/06/15 03:30:46;;;;;;;8.38;4.15;;;;;;;;;;5066494;28;20387;-60
2022/06/15 03:33:12;;;;;;;8.35;4.22;;;;;;;;;;5066706;28;20040;-59
2022/06/15 03:35:39;;;;;;;7.90;4.10;;;;;;;;;;5047911;28;20135;-60
2022/06/15 03:38:08;;;;;;;10.80;4.00;;;;;;;;;;5065211;28;20394;-59
2022/06/15 03:40:35;;;;;;;7.80;4.05;;;;;;;;;;5065898;28;20043;-60
2022/06/15 03:43:01;;;;;;;6.90;3.80;;;;;;;;;;5066027;28;20504;-60
2022/06/15 03:45:28;;;;;;;8.10;3.75;;;;;;;;;;5062328;28;20415;-60
2022/06/15 03:47:55;;;;;;;9.88;4.20;;;;;;;;;;5066039;28;20076;-59
2022/06/15 03:50:23;;;;;;;9.93;3.65;;;;;;;;;;5046916;28;20045;-60
2022/06/15 03:52:49;;;;;;;9.88;4.10;;;;;;;;;;5065438;28;20037;-59
2022/06/15 03:55:16;;;;;;;10.40;4.70;;;;;;;;;;5065918;28;20060;-59
2022/06/15 03:57:42;;;;;;;9.85;4.43;;;;;;;;;;5047646;28;20044;-60
2022/06/15 04:00:11;;;;;;;9.95;4.53;;;;;;;;;;5066178;28;20040;-60
2022/06/15 04:02:37;;;;;;;10.13;4.30;;;;;;;;;;5063477;28;20044;-60
2022/06/15 04:05:03;;;;;;;11.35;4.63;;;;;;;;;;5066162;28;20046;-60
2022/06/15 04:10:14;;;;;;;12.13;5.00;;;;;;;;;;5047963;28;20532;-60
2022/06/15 04:12:43;;;;;;;9.75;3.85;;;;;;;;;;5064642;28;20456;-60
2022/06/15 04:15:10;;;;;;;7.40;4.20;;;;;;;;;;5065543;28;20128;-59
2022/06/15 04:17:37;;;;;;;6.80;4.28;;;;;;;;;;5065163;28;20052;-60
2022/06/15 04:22:48;;;;;;;7.80;4.43;;;;;;;;;;5064617;28;20090;-60
2022/06/15 04:25:14;;;;;;;6.53;3.83;;;;;;;;;;5065193;28;20478;-59
2022/06/15 04:27:41;;;;;;;8.57;4.10;;;;;;;;;;5065245;28;20115;-60
2022/06/15 04:30:07;;;;;;;11.27;4.28;;;;;;;;;;5064379;28;20045;-59
2022/06/15 04:32:34;;;;;;;8.07;4.35;;;;;;;;;;5064525;28;20390;-60
2022/06/15 04:35:00;;;;;;;6.60;3.72;;;;;;;;;;5064524;28;20051;-60
2022/06/15 04:37:26;;;;;;;10.57;4.15;;;;;;;;;;5064096;28;20071;-59
2022/06/15 04:39:52;;;;;;;7.40;4.47;;;;;;;;;;5065169;28;20076;-60
2022/06/15 04:42:18;;;;;;;9.68;5.20;;;;;;;;;;5065043;28;20032;-60
2022/06/15 04:44:44;;;;;;;9.82;4.93;;;;;;;;;;5046052;28;20040;-60
2022/06/15 04:47:10;;;;;;;8.10;4.05;;;;;;;;;;5065010;28;20550;-60
2022/06/15 04:49:37;;;;;;;7.28;4.50;;;;;;;;;;5064005;28;20244;-59
2022/06/15 04:52:03;;;;;;;9.40;4.85;;;;;;;;;;5063979;28;20490;-60
2022/06/15 04:54:29;;;;;;;11.20;4.90;;;;;;;;;;5063913;28;20084;-60
2022/06/15 04:56:56;;;;;;;13.02;4.75;;;;;;;;;;5064040;28;20032;-60
2022/06/15 04:59:22;;;;;;;9.70;4.72;;;;;;;;;;5063913;28;20036;-60
2022/06/15 05:01:48;;;;;;;8.13;4.50;;;;;;;;;;5064550;28;20155;-60
2022/06/15 05:04:14;;;;;;;11.75;4.72;;;;;;;;;;5062698;28;20052;-60
2022/06/15 05:06:41;;;;;;;13.40;4.88;;;;;;;;;;5062762;28;20071;-60
2022/06/15 05:09:10;;;;;;;7.13;4.95;;;;;;;;;;5045808;28;20052;-60
2022/06/15 05:11:37;;;;;;;9.40;4.28;;;;;;;;;;5064336;28;20389;-60
2022/06/15 05:14:03;;;;;;;12.05;5.50;;;;;;;;;;5063194;28;20489;-60
2022/06/15 05:16:29;;;;;;;9.18;4.80;;;;;;;;;;5063534;28;20036;-59
2022/06/15 05:18:56;;;;;;;11.45;4.55;;;;;;;;;;5064122;28;20123;-60
2022/06/15 05:21:22;;;;;;;7.88;4.28;;;;;;;;;;5062545;28;20043;-59
2022/06/15 05:23:48;;;;;;;14.43;4.00;;;;;;;;;;5063976;28;20032;-61
2022/06/15 05:26:14;;;;;;;11.52;5.00;;;;;;;;;;5064042;28;20182;-59
2022/06/15 05:28:44;;;;;;;10.90;4.22;;;;;;;;;;5060097;28;20116;-60
2022/06/15 05:31:16;;;;;;;8.45;3.90;;;;;;;;;;5060292;28;20076;-60
2022/06/15 05:33:42;;;;;;;9.20;4.55;;;;;;;;;;5063202;28;20050;-60
2022/06/15 05:36:10;;;;;;;8.27;4.35;;;;;;;;;;5062404;28;20045;-60
2022/06/15 05:38:37;;;;;;;15.10;3.92;;;;;;;;;;5063642;28;20098;-61
2022/06/15 05:41:03;;;;;;;11.05;4.68;;;;;;;;;;5061401;28;20124;-61
2022/06/15 05:43:31;;;;;;;9.25;4.50;;;;;;;;;;5062812;28;20045;-60
2022/06/15 05:45:58;;;;;;;11.52;4.13;;;;;;;;;;5063721;28;20059;-60
2022/06/15 05:48:24;;;;;;;10.90;4.07;;;;;;;;;;5063020;28;20041;-60
2022/06/15 05:50:50;;;;;;;6.82;3.70;;;;;;;;;;5044867;28;20048;-60
2022/06/15 05:53:16;;;;;;;9.77;3.97;;;;;;;;;;5063622;28;20463;-59
2022/06/15 05:55:42;;;;;;;7.10;3.50;;;;;;;;;;5061588;28;20033;-60
2022/06/15 05:58:08;;;;;;;13.68;3.50;;;;;;;;;;5063395;28;20044;-60
2022/06/15 06:00:35;;;;;;;9.30;3.78;;;;;;;;;;5063295;28;20458;-60
2022/06/15 06:03:01;;;;;;;12.68;3.40;;;;;;;;;;5062679;28;20040;-60
2022/06/15 06:05:27;;;;;;;8.27;3.22;;;;;;;;;;5061083;28;20102;-60
2022/06/15 06:07:54;;;;;;;9.43;3.28;;;;;;;;;;5063677;28;20119;-60
2022/06/15 06:10:20;;;;;;;9.10;2.97;;;;;;;;;;5063022;28;20397;-60
2022/06/15 06:12:47;;;;;;;13.00;3.63;;;;;;;;;;5063432;28;20071;-60
2022/06/15 06:15:13;;;;;;;7.07;3.00;;;;;;;;;;5063033;28;20131;-60
2022/06/15 06:17:39;;;;;;;9.82;2.63;;;;;;;;;;5063247;28;20032;-60
2022/06/15 06:20:05;;;;;;;6.85;2.60;;;;;;;;;;5059701;28;20090;-60
2022/06/15 06:22:32;;;;;;;6.35;2.95;;;;;;;;;;5062796;28;20090;-60
2022/06/15 06:24:58;;;;;;;5.25;2.42;;;;;;;;;;5063992;28;20053;-60
2022/06/15 06:27:24;;;;;;;8.18;2.78;;;;;;;;;;5063522;28;20058;-60
2022/06/15 06:29:50;;;;;;;9.45;2.92;;;;;;;;;;5063329;28;20136;-60
2022/06/15 06:32:17;;;;;;;6.93;2.80;;;;;;;;;;5063627;28;20131;-60
2022/06/15 06:34:44;;;;;;;7.30;2.97;;;;;;;;;;5063139;28;20053;-60
2022/06/15 06:37:13;;;;;;;11.23;3.10;;;;;;;;;;5063166;28;20040;-60
2022/06/15 06:39:39;;;;;;;8.70;3.03;;;;;;;;;;5063482;28;20041;-60
2022/06/15 06:42:05;;;;;;;6.43;2.85;;;;;;;;;;5063515;28;20037;-60
2022/06/15 06:44:32;;;;;;;5.95;2.20;;;;;;;;;;5062951;28;20048;-60
2022/06/15 06:46:58;;;;;;;7.63;2.20;;;;;;;;;;5063163;28;20040;-60
2022/06/15 06:49:24;;;;;;;9.35;2.53;;;;;;;;;;5063224;28;20052;-60
2022/06/15 06:51:51;;;;;;;12.15;3.47;;;;;;;;;;5062528;28;20058;-60
2022/06/15 06:54:19;;;;;;;9.60;2.50;;;;;;;;;;5062691;28;20094;-61
2022/06/15 06:56:45;;;;;;;11.05;2.35;;;;;;;;;;5063842;28;20036;-60
2022/06/15 06:59:12;;;;;;;4.20;2.08;;;;;;;;;;5059999;28;20047;-60
2022/06/15 07:01:40;;;;;;;6.85;2.13;;;;;;;;;;5063308;28;20048;-60
2022/06/15 07:04:06;;;;;;;5.88;2.10;;;;;;;;;;5063489;28;20052;-60
2022/06/15 07:06:32;;;;;;;10.25;2.40;;;;;;;;;;5062701;28;20543;-60
2022/06/15 07:08:58;;;;;;;3.60;1.88;;;;;;;;;;5063487;28;20127;-60
2022/06/15 07:11:25;;;;;;;8.05;2.45;;;;;;;;;;5062513;28;20040;-60
2022/06/15 07:13:51;;;;;;;10.88;2.13;;;;;;;;;;5063734;28;20052;-60
2022/06/15 07:16:19;;;;;;;7.40;2.10;;;;;;;;;;5065816;28;20045;-61
2022/06/15 07:18:46;;;;;;;8.02;2.35;;;;;;;;;;5066352;28;20039;-60
2022/06/15 07:21:14;;;;;;;7.57;2.35;;;;;;;;;;5065183;28;21814;-60
2022/06/15 07:23:42;;;;;;;5.30;1.90;;;;;;;;;;5065364;28;20074;-60
2022/06/15 07:26:11;;;;;;;7.57;1.98;;;;;;;;;;5065444;28;20124;-60
2022/06/15 07:28:38;;;;;;;3.58;1.95;;;;;;;;;;5064906;28;20541;-60
2022/06/15 07:31:04;;;;;;;8.70;1.77;;;;;;;;;;5065458;28;20045;-60
2022/06/15 07:33:31;;;;;;;7.18;1.77;;;;;;;;;;5065114;28;20076;-60
2022/06/15 07:35:57;;;;;;;5.07;2.00;;;;;;;;;;5064317;28;20052;-60
2022/06/15 07:38:23;;;;;;;3.90;1.70;;;;;;;;;;5065161;28;20037;-60
2022/06/15 07:40:50;;;;;;;7.70;2.90;;;;;;;;;;5065536;28;20041;-60
2022/06/15 07:43:17;;;;;;;9.48;2.13;;;;;;;;;;5065519;28;20055;-60
2022/06/15 07:45:43;;;;;;;8.43;2.17;;;;;;;;;;5065699;28;20036;-60
2022/06/15 07:50:55;;;;;;;8.23;2.03;;;;;;;;;;5064299;28;20040;-60
2022/06/15 07:53:21;;;;;;;9.02;2.08;;;;;;;;;;5064433;28;20048;-60
2022/06/15 07:55:48;;;;;;;5.13;1.65;;;;;;;;;;5065309;28;20036;-61
2022/06/15 07:58:16;;;;;;;5.32;1.80;;;;;;;;;;5047579;28;20063;-60
2022/06/15 08:00:44;;;;;;;6.60;1.67;;;;;;;;;;5064918;28;20041;-60
2022/06/15 08:03:10;;;;;;;7.22;1.67;;;;;;;;;;5064723;28;20114;-60
2022/06/15 08:05:40;;;;;;;5.75;1.60;;;;;;;;;;5063508;28;20123;-60
2022/06/15 08:08:08;;;;;;;6.90;1.67;;;;;;;;;;5064943;28;20052;-60
2022/06/15 08:10:34;;;;;;;4.53;1.73;;;;;;;;;;5064200;28;20398;-60
2022/06/15 08:13:01;;;;;;;5.72;1.52;;;;;;;;;;5023859;28;1175997;-60
2022/06/15 08:15:27;;;;;;;6.20;1.90;;;;;;;;;;5065316;28;20045;-60
2022/06/15 08:17:55;;;;;;;7.32;1.70;;;;;;;;;;5062963;28;20194;-60
2022/06/15 08:20:24;;;;;;;4.75;1.25;;;;;;;;;;5064442;28;20123;-60
2022/06/15 08:22:52;;;;;;;4.88;1.58;;;;;;;;;;5065279;28;20481;-60
2022/06/15 08:25:20;;;;;;;4.75;1.35;;;;;;;;;;5064326;28;20048;-61
2022/06/15 08:27:47;;;;;;;10.13;1.70;;;;;;;;;;5065867;28;20028;-62
2022/06/15 08:30:14;;;;;;;6.25;1.63;;;;;;;;;;5065749;28;20048;-60
2022/06/15 08:32:41;;;;;;;4.93;1.40;;;;;;;;;;5064624;28;20406;-60
2022/06/15 08:35:08;;;;;;;6.57;1.48;;;;;;;;;;5063719;28;20044;-60
2022/06/15 08:37:34;;;;;;;7.10;1.45;;;;;;;;;;5064784;28;20036;-60
2022/06/15 08:40:00;;;;;;;5.55;1.52;;;;;;;;;;5065383;28;20557;-60
2022/06/15 08:42:33;;;;;;;7.93;1.85;;;;;;;;;;5064881;28;20086;-61
2022/06/15 08:45:09;;;;;;;3.78;1.52;;;;;;;;;;5064512;28;20058;-60
2022/06/15 08:47:43;;;;;;;7.15;1.80;;;;;;;;;;5064530;28;20044;-60
2022/06/15 08:50:28;;;;;;;6.70;1.52;;;;;;;;;;5045501;28;20115;-60
2022/06/15 08:52:54;;;;;;;3.70;1.48;;;;;;;;;;5064845;28;20128;-60
2022/06/15 08:55:32;;;;;;;5.93;1.50;;;;;;;;;;5064640;28;20111;-61
2022/06/15 08:58:01;;;;;;;5.28;1.23;;;;;;;;;;5064789;28;20500;-60
2022/06/15 09:00:30;;;;;;;6.30;1.50;;;;;;;;;;5064045;28;20068;-60
2022/06/15 09:03:02;;;;;;;5.65;1.55;;;;;;;;;;5064766;28;20127;-60
2022/06/15 09:05:42;;;;;;;3.20;1.38;;;;;;;;;;5063312;28;20052;-60
2022/06/15 09:08:22;;;;;;;5.95;1.40;;;;;;;;;;5060457;28;20478;-60
2022/06/15 09:10:52;;;;;;;4.47;1.40;;;;;;;;;;5064131;28;20110;-61
2022/06/15 09:13:25;;;;;;;4.00;1.20;;;;;;;;;;5046293;28;20048;-61
2022/06/15 09:15:52;;;;;;;6.90;2.03;;;;;;;;;;5064214;28;20102;-61
2022/06/15 09:18:24;;;;;;;3.28;1.67;;;;;;;;;;5064051;28;20516;-61
2022/06/15 09:20:54;;;;;;;5.85;1.60;;;;;;;;;;5063082;28;20168;-60
2022/06/15 09:23:23;;;;;;;2.45;1.30;;;;;;;;;;5064139;28;20127;-61
2022/06/15 09:25:52;;;;;;;7.50;1.48;;;;;;;;;;5063741;28;20041;-61
2022/06/15 09:28:25;;;;;;;9.60;1.63;;;;;;;;;;5063980;28;20110;-60
2022/06/15 09:30:53;;;;;;;9.95;2.08;;;;;;;;;;5064149;28;20056;-61
2022/06/15 09:33:28;;;;;;;6.07;2.00;;;;;;;;;;5063962;28;20044;-61
2022/06/15 09:36:02;;;;;;;5.32;1.80;;;;;;;;;;5062471;28;20781;-61
2022/06/15 09:38:29;;;;;;;4.32;1.75;;;;;;;;;;5059613;28;20044;-60
2022/06/15 09:40:58;;;;;;;8.65;1.98;;;;;;;;;;5046022;28;20123;-60
2022/06/15 09:43:25;;;;;;;3.13;1.42;;;;;;;;;;5061726;28;20041;-60
2022/06/15 09:46:02;;;;;;;12.13;2.10;;;;;;;;;;5063581;28;20044;-61
2022/06/15 09:48:35;;;;;;;5.07;1.90;;;;;;;;;;5061561;28;20040;-60
2022/06/15 09:51:10;;;;;;;6.72;1.55;;;;;;;;;;5062278;28;20093;-60
2022/06/15 09:53:53;;;;;;;8.15;1.90;;;;;;;;;;5061311;28;20048;-60
2022/06/15 09:56:21;;;;;;;6.65;1.60;;;;;;;;;;5063317;28;20560;-61
2022/06/15 09:58:51;;;;;;;7.82;1.95;;;;;;;;;;5063574;28;20410;-61
2022/06/15 10:01:19;;;;;;;6.93;2.10;;;;;;;;;;5062946;28;20048;-61
2022/06/15 10:03:47;;;;;;;5.95;1.60;;;;;;;;;;5064015;28;20529;-60
2022/06/15 10:06:20;;;;;;;6.97;2.05;;;;;;;;;;5063022;28;20817;-60
2022/06/15 10:08:46;;;;;;;5.45;1.92;;;;;;;;;;5063958;28;20036;-60
2022/06/15 10:11:15;;;;;;;5.63;2.10;;;;;;;;;;5063981;28;20040;-60
2022/06/15 10:13:41;;;;;;;4.50;1.58;;;;;;;;;;5062979;28;20044;-60
2022/06/15 10:16:15;;;;;;;4.90;1.85;;;;;;;;;;5045371;28;20064;-60
2022/06/15 10:18:47;;;;;;;7.07;2.00;;;;;;;;;;5063123;28;20853;-60
2022/06/15 10:21:13;;;;;;;6.55;1.75;;;;;;;;;;5062229;28;20401;-60
2022/06/15 10:23:52;;;;;;;3.80;1.58;;;;;;;;;;5062790;28;20044;-60
2022/06/15 10:26:25;;;;;;;4.72;1.58;;;;;;;;;;5063048;28;20032;-61
2022/06/15 10:28:51;;;;;;;5.13;2.17;;;;;;;;;;5062930;28;20113;-60
2022/06/15 10:31:23;;;;;;;7.13;1.85;;;;;;;;;;5062725;28;20037;-62
2022/06/15 10:33:52;;;;;;;5.65;1.90;;;;;;;;;;5062824;28;20040;-61
2022/06/15 10:36:21;;;;;;;4.47;1.40;;;;;;;;;;5062364;28;20128;-61
2022/06/15 10:38:55;;;;;;;4.45;1.50;;;;;;;;;;5063214;28;20044;-61
2022/06/15 10:41:46;;;;;;;5.63;1.88;;;;;;;;;;5062808;28;20044;-61
2022/06/15 10:44:13;;;;;;;6.32;1.75;;;;;;;;;;5063454;28;20071;-60
2022/06/15 10:46:54;;;;;;;4.90;1.52;;;;;;;;;;5063056;28;20048;-60
2022/06/15 10:49:21;;;;;;;6.43;1.40;;;;;;;;;;5065763;28;20048;-61
2022/06/15 10:51:47;;;;;;;3.85;1.30;;;;;;;;;;5064798;28;20507;-61
2022/06/15 10:54:17;;;;;;;4.00;1.40;;;;;;;;;;5060328;28;20469;-60
2022/06/15 11:02:10;;;;;;;3.53;1.58;;;;;;;;;;5064074;28;20048;-60
2022/06/15 11:04:50;;;;;;;6.88;1.30;;;;;;;;;;5062219;28;20541;-61
2022/06/15 11:07:22;;;;;;;6.85;2.03;;;;;;;;;;5045251;28;20052;-60
2022/06/15 11:10:07;;;;;;;3.08;1.08;;;;;;;;;;5063835;28;20044;-60
2022/06/15 11:12:46;;;;;;;8.00;1.77;;;;;;;;;;5061660;28;20056;-60
2022/06/15 11:15:13;;;;;;;4.88;1.60;;;;;;;;;;5064293;28;20052;-59
2022/06/15 11:20:40;;;;;;;4.15;1.40;;;;;;;;;;5043912;28;20052;-60
2022/06/15 11:23:07;;;;;;;2.90;1.30;;;;;;;;;;5059928;28;20074;-60
2022/06/15 11:25:39;;;;;;;5.20;1.33;;;;;;;;;;5063427;28;20045;-60
2022/06/15 11:28:08;;;;;;;6.47;1.77;;;;;;;;;;5063658;28;20121;-59
2022/06/15 11:30:36;;;;;;;13.15;1.48;;;;;;;;;;5063511;28;20067;-59
2022/06/15 11:33:15;;;;;;;2.65;1.45;;;;;;;;;;5063164;28;20044;-60
2022/06/15 11:35:43;;;;;;;3.17;1.58;;;;;;;;;;5062029;28;20127;-60
2022/06/15 11:38:13;;;;;;;3.60;1.20;;;;;;;;;;5063256;28;20045;-60
2022/06/15 11:40:43;;;;;;;2.17;1.10;;;;;;;;;;5062334;28;20563;-59
2022/06/15 11:43:13;;;;;;;7.28;1.52;;;;;;;;;;5063510;28;20520;-60
2022/06/15 11:45:50;;;;;;;15.32;1.73;;;;;;;;;;5058502;28;20094;-59
2022/06/15 11:48:22;;;;;;;7.38;1.35;;;;;;;;;;5064289;28;20043;-60
2022/06/15 11:50:53;;;;;;;3.03;1.27;;;;;;;;;;5063751;28;20078;-60
2022/06/15 11:53:21;;;;;;;4.15;1.80;;;;;;;;;;5065299;28;20543;-60
2022/06/15 11:55:53;;;;;;;3.78;1.45;;;;;;;;;;5066025;28;20059;-60
2022/06/15 11:58:25;;;;;;;5.20;1.40;;;;;;;;;;5065173;28;20040;-60
2022/06/15 12:01:15;;;;;;;5.63;1.17;;;;;;;;;;5064602;28;20112;-60
2022/06/15 12:03:52;;;;;;;6.20;1.95;;;;;;;;;;5064974;28;20155;-59
2022/06/15 12:06:27;;;;;;;5.35;1.48;;;;;;;;;;5065043;28;20037;-60
2022/06/15 12:09:04;;;;;;;4.90;1.60;;;;;;;;;;5046564;28;20036;-59
2022/06/15 12:14:34;;;;;;;7.80;1.70;;;;;;;;;;5064035;28;20071;-60
2022/06/15 12:17:00;;;;;;;4.53;1.40;;;;;;;;;;5047293;28;20044;-60
2022/06/15 12:19:26;;;;;;;14.68;1.50;;;;;;;;;;5063365;28;20048;-60
2022/06/15 12:21:57;;;;;;;6.43;1.40;;;;;;;;;;5065094;28;20033;-60
2022/06/15 12:24:29;;;;;;;5.90;1.70;;;;;;;;;;5064262;28;20036;-60
2022/06/15 12:27:10;;;;;;;5.60;1.80;;;;;;;;;;5065570;28;20044;-60
2022/06/15 12:29:40;;;;;;;3.65;1.35;;;;;;;;;;5064380;28;20042;-60
2022/06/15 12:34:49;;;;;;;4.57;1.20;;;;;;;;;;5063849;28;20522;-59
2022/06/15 12:37:23;;;;;;;5.50;1.52;;;;;;;;;;5065515;28;20045;-59
2022/06/15 12:40:07;;;;;;;7.40;1.88;;;;;;;;;;5064837;28;20047;-60
2022/06/15 12:42:34;;;;;;;4.93;1.60;;;;;;;;;;5064526;28;20067;-60
2022/06/15 12:45:06;;;;;;;5.95;2.13;;;;;;;;;;5064759;28;20727;-60
2022/06/15 12:47:32;;;;;;;7.72;1.60;;;;;;;;;;5064893;28;20536;-60
2022/06/15 12:50:08;;;;;;;5.50;1.70;;;;;;;;;;5062023;28;20115;-60
2022/06/15 12:52:40;;;;;;;4.32;1.42;;;;;;;;;;5064472;28;20075;-60
2022/06/15 12:55:14;;;;;;;4.13;1.98;;;;;;;;;;5064575;28;20091;-60
2022/06/15 12:57:58;;;;;;;4.45;1.58;;;;;;;;;;5046467;28;20051;-60
2022/06/15 13:00:34;;;;;;;9.02;1.45;;;;;;;;;;5064066;28;20044;-60
2022/06/15 13:03:08;;;;;;;3.85;1.45;;;;;;;;;;5064239;28;20048;-60
2022/06/15 13:05:38;;;;;;;3.15;1.40;;;;;;;;;;5063142;28;20041;-60
2022/06/15 13:08:20;;;;;;;4.30;1.40;;;;;;;;;;5064126;28;20036;-60
2022/06/15 13:10:55;;;;;;;7.13;1.70;;;;;;;;;;5064104;28;20056;-60
2022/06/15 13:13:25;;;;;;;4.13;1.20;;;;;;;;;;5063890;28;20139;-60
2022/06/15 13:15:51;;;;;;;4.90;1.17;;;;;;;;;;5063871;28;20140;-60
2022/06/15 13:18:19;;;;;;;3.22;1.73;;;;;;;;;;5063714;28;20105;-61
2022/06/15 13:20:46;;;;;;;8.13;1.40;;;;;;;;;;5063736;28;20101;-60
2022/06/15 13:23:24;;;;;;;3.03;1.40;;;;;;;;;;5064222;28;20567;-60
2022/06/15 13:25:52;;;;;;;6.00;1.30;;;;;;;;;;5063372;28;20036;-60
2022/06/15 13:28:19;;;;;;;8.30;1.67;;;;;;;;;;5063933;28;20044;-60
2022/06/15 13:30:54;;;;;;;4.05;1.45;;;;;;;;;;5063857;28;20046;-60
2022/06/15 13:33:21;;;;;;;6.30;1.50;;;;;;;;;;5061043;28;20066;-61
2022/06/15 13:36:09;;;;;;;3.47;1.58;;;;;;;;;;5062638;28;20084;-60
2022/06/15 13:38:36;;;;;;;12.98;1.90;;;;;;;;;;5062073;28;20044;-60
2022/06/15 13:41:02;;;;;;;5.45;1.73;;;;;;;;;;5045756;28;20048;-60
2022/06/15 13:43:29;;;;;;;5.97;1.75;;;;;;;;;;5063174;28;20123;-60
2022/06/15 13:45:58;;;;;;;6.10;2.03;;;;;;;;;;5060192;28;20538;-60
2022/06/15 13:48:29;;;;;;;6.90;1.67;;;;;;;;;;5061500;28;20053;-60
2022/06/15 13:50:57;;;;;;;8.38;1.70;;;;;;;;;;5062414;28;20221;-60
2022/06/15 13:53:34;;;;;;;4.65;1.50;;;;;;;;;;5044623;28;20123;-60
2022/06/15 13:56:00;;;;;;;17.55;2.22;;;;;;;;;;5062838;28;20056;-60
2022/06/15 13:58:40;;;;;;;10.45;1.60;;;;;;;;;;5063051;28;20506;-60
2022/06/15 14:01:22;;;;;;;4.65;1.88;;;;;;;;;;5063136;28;20857;-60
2022/06/15 14:03:49;;;;;;;5.97;1.27;;;;;;;;;;5063584;28;20370;-61
2022/06/15 14:06:31;;;;;;;28.58;2.83;;;;;;;;;;5062395;28;20047;-60
2022/06/15 14:09:11;;;;;;;3.35;1.30;;;;;;;;;;5060619;28;20060;-60
2022/06/15 14:12:03;;;;;;;8.10;1.40;;;;;;;;;;5063025;28;20419;-60
2022/06/15 14:14:36;;;;;;;3.63;1.27;;;;;;;;;;5062900;28;20048;-60
2022/06/15 14:17:10;;;;;;;7.28;2.00;;;;;;;;;;5063200;28;20762;-60
2022/06/15 14:19:39;;;;;;;19.35;2.92;;;;;;;;;;5059359;28;20036;-60
2022/06/15 14:22:09;;;;;;;3.53;1.67;;;;;;;;;;5062714;28;20102;-60
2022/06/15 14:24:35;;;;;;;7.35;2.00;;;;;;;;;;5062291;28;20182;-60
2022/06/15 14:27:03;;;;;;;4.97;1.90;;;;;;;;;;5062489;28;20114;-60
2022/06/15 14:29:38;;;;;;;17.92;2.33;;;;;;;;;;5062560;28;20040;-60
2022/06/15 14:32:05;;;;;;;7.65;2.50;;;;;;;;;;5063238;28;20040;-60
2022/06/15 14:34:32;;;;;;;6.75;2.15;;;;;;;;;;5062160;28;20040;-60
2022/06/15 14:37:00;;;;;;;18.55;2.63;;;;;;;;;;5063048;28;20036;-60
2022/06/15 14:39:26;;;;;;;;;;;;;;;;;;5063000;28;20075;-60
2022/06/15 14:42:01;;;;;;;11.25;3.50;;;;;;;;;;5059495;28;19944;-60
2022/06/15 14:44:27;;;;;;;6.03;1.90;;;;;;;;;;5059296;28;20644;-60
2022/06/15 14:46:59;;;;;;;7.95;2.00;;;;;;;;;;5063205;28;20044;-60
2022/06/15 14:49:28;;;;;;;6.60;2.35;;;;;;;;;;5043974;28;20052;-60
2022/06/15 14:52:09;;;;;;;14.77;2.58;;;;;;;;;;5062416;28;20040;-60
2022/06/15 14:54:36;;;;;;;5.07;2.25;;;;;;;;;;5059001;28;20045;-60
2022/06/15 14:57:03;;;;;;;7.97;2.57;;;;;;;;;;5063112;28;20082;-60
2022/06/15 14:59:42;;;;;;;8.98;2.38;;;;;;;;;;5062304;28;20040;-60
2022/06/15 15:02:09;;;;;;;3.50;1.77;;;;;;;;;;5063070;28;20048;-60
2022/06/15 15:04:41;;;;;;;13.00;2.30;;;;;;;;;;5061235;28;20051;-60
2022/06/15 15:10:19;;;;;;;6.85;2.03;;;;;;;;;;5061496;28;20589;-60
2022/06/15 15:12:46;;;;;;;5.30;1.98;;;;;;;;;;5062447;28;20755;-60
2022/06/15 15:15:12;;;;;;;3.92;1.75;;;;;;;;;;5045020;28;20056;-61
2022/06/15 15:17:48;;;;;;;5.80;1.98;;;;;;;;;;5044398;28;20072;-60
2022/06/15 15:20:28;;;;;;;5.63;1.80;;;;;;;;;;5060677;28;20129;-60